createdAt,value
2023-03-29T00:00:15.378Z,37.96
2023-03-29T00:02:48.592Z,38.11
2023-03-29T00:05:23.248Z,38.14
2023-03-29T00:08:02.070Z,38.38
2023-03-29T00:10:35.131Z,38.46
2023-03-29T00:13:06.418Z,38.43
2023-03-29T00:15:37.653Z,38.39
2023-03-29T00:18:09.292Z,38.33
2023-03-29T00:20:41.073Z,38.34
2023-03-29T00:23:12.346Z,38.45
2023-03-29T00:25:48.249Z,38.69
2023-03-29T00:28:19.772Z,38.71
2023-03-29T00:30:51.546Z,38.84
2023-03-29T00:33:23.939Z,39.05
2023-03-29T00:35:55.663Z,39.19
2023-03-29T00:38:27.270Z,39.45
2023-03-29T00:40:58.653Z,39.63
2023-03-29T00:43:30.589Z,39.76
2023-03-29T00:46:01.655Z,39.81
2023-03-29T00:48:33.278Z,39.79
2023-03-29T00:51:09.874Z,39.84
2023-03-29T00:53:44.499Z,40.04
2023-03-29T00:56:20.623Z,40.08
2023-03-29T00:58:56.457Z,40.22
2023-03-29T01:01:34.212Z,40.28
2023-03-29T01:04:10.244Z,40.39
2023-03-29T01:06:45.360Z,40.53
2023-03-29T01:09:20.412Z,40.73
2023-03-29T01:11:56.047Z,40.96
2023-03-29T01:14:34.476Z,41.15
2023-03-29T01:17:06.736Z,41.28
2023-03-29T01:19:46.721Z,41.26
2023-03-29T01:22:26.130Z,41.58
2023-03-29T01:25:07.756Z,41.71
2023-03-29T01:27:52.572Z,41.74
2023-03-29T01:30:30.660Z,41.82
2023-03-29T01:33:07.651Z,41.87
2023-03-29T01:35:44.001Z,42.03
2023-03-29T01:38:21.834Z,42.06
2023-03-29T01:40:53.515Z,42.03
2023-03-29T01:43:29.048Z,42.08
2023-03-29T01:46:06.348Z,41.92
2023-03-29T01:48:47.835Z,41.92
2023-03-29T01:51:26.460Z,42.00
2023-03-29T01:54:02.206Z,42.00
2023-03-29T01:56:38.849Z,42.18
2023-03-29T01:59:16.243Z,42.14
2023-03-29T02:01:52.218Z,42.24
2023-03-29T02:04:30.006Z,42.18
2023-03-29T02:07:04.411Z,42.22
2023-03-29T02:09:38.197Z,42.21
2023-03-29T02:12:12.138Z,42.27
2023-03-29T02:14:43.792Z,42.38
2023-03-29T02:17:23.202Z,42.40
2023-03-29T02:19:59.461Z,42.48
2023-03-29T02:22:38.006Z,42.62
2023-03-29T02:25:10.844Z,42.73
2023-03-29T02:27:43.071Z,42.94
2023-03-29T02:30:18.409Z,43.11
2023-03-29T02:32:58.041Z,43.17
2023-03-29T02:35:36.302Z,43.33
2023-03-29T02:38:10.615Z,43.57
2023-03-29T02:40:43.349Z,43.57
2023-03-29T02:43:17.245Z,43.84
2023-03-29T02:45:48.907Z,44.00
2023-03-29T02:48:22.602Z,44.18
2023-03-29T02:50:56.695Z,44.14
2023-03-29T02:53:34.019Z,44.30
2023-03-29T02:56:06.393Z,44.29
2023-03-29T02:58:37.478Z,44.40
2023-03-29T03:01:11.454Z,44.55
2023-03-29T03:03:43.219Z,44.56
2023-03-29T03:06:15.417Z,44.63
2023-03-29T03:08:46.794Z,44.64
2023-03-29T03:11:18.868Z,44.81
2023-03-29T03:13:51.688Z,44.75
2023-03-29T03:16:22.903Z,44.82
2023-03-29T03:18:54.953Z,44.90
2023-03-29T03:21:28.325Z,44.87
2023-03-29T03:23:59.854Z,44.99
2023-03-29T03:26:31.260Z,44.96
2023-03-29T03:29:02.178Z,45.03
2023-03-29T03:31:54.040Z,45.10
2023-03-29T03:34:44.318Z,45.18
2023-03-29T03:37:15.860Z,45.21
2023-03-29T03:39:48.013Z,45.28
2023-03-29T03:42:19.801Z,45.31
2023-03-29T03:44:51.895Z,45.37
2023-03-29T03:47:49.103Z,45.40
2023-03-29T03:50:40.197Z,45.41
2023-03-29T03:53:14.670Z,45.51
2023-03-29T03:56:09.146Z,45.60
2023-03-29T03:58:50.609Z,45.63
2023-03-29T04:01:22.258Z,45.68
2023-03-29T04:03:59.888Z,45.80
2023-03-29T04:06:32.660Z,45.75
2023-03-29T04:09:23.650Z,45.84
2023-03-29T04:12:07.157Z,45.70
2023-03-29T04:14:38.724Z,45.80
2023-03-29T04:17:13.589Z,45.87
2023-03-29T04:20:13.570Z,45.96
2023-03-29T04:22:45.063Z,45.81
2023-03-29T04:25:16.912Z,45.85
2023-03-29T04:27:54.181Z,45.87
2023-03-29T04:30:42.731Z,45.97
2023-03-29T04:33:21.603Z,45.94
2023-03-29T04:35:58.547Z,45.98
2023-03-29T04:38:30.206Z,45.88
2023-03-29T04:41:04.023Z,46.02
2023-03-29T04:43:48.757Z,46.14
2023-03-29T04:46:28.172Z,46.12
2023-03-29T04:49:18.295Z,46.15
2023-03-29T04:51:53.359Z,46.42
2023-03-29T04:54:26.712Z,46.32
2023-03-29T04:57:07.380Z,46.19
2023-03-29T04:59:57.362Z,46.21
2023-03-29T05:02:48.807Z,46.18
2023-03-29T05:05:21.184Z,46.17
2023-03-29T05:07:55.056Z,46.03
2023-03-29T05:10:31.054Z,46.14
2023-03-29T05:13:04.144Z,46.05
2023-03-29T05:15:35.752Z,46.06
2023-03-29T05:18:07.360Z,46.09
2023-03-29T05:20:40.521Z,45.95
2023-03-29T05:23:12.609Z,45.63
2023-03-29T05:26:15.396Z,45.45
2023-03-29T05:28:51.618Z,45.21
2023-03-29T05:31:23.099Z,45.18
2023-03-29T05:33:56.716Z,45.02
2023-03-29T05:36:28.530Z,45.02
2023-03-29T05:38:59.975Z,44.92
2023-03-29T05:41:32.872Z,44.87
2023-03-29T05:44:30.690Z,44.78
2023-03-29T05:47:09.253Z,44.60
2023-03-29T05:49:40.777Z,44.64
2023-03-29T05:52:21.519Z,44.58
2023-03-29T05:54:52.963Z,44.65
2023-03-29T05:57:24.742Z,44.76
2023-03-29T05:59:56.688Z,44.64
2023-03-29T06:02:29.705Z,44.87
2023-03-29T06:05:03.513Z,44.84
2023-03-29T06:07:44.079Z,45.10
2023-03-29T06:10:37.295Z,44.96
2023-03-29T06:13:31.204Z,44.84
2023-03-29T06:16:02.259Z,44.85
2023-03-29T06:18:33.742Z,44.89
2023-03-29T06:21:05.769Z,45.16
2023-03-29T06:23:37.534Z,45.20
2023-03-29T06:26:10.703Z,45.40
2023-03-29T06:28:43.097Z,45.56
2023-03-29T06:31:14.718Z,45.63
2023-03-29T06:33:46.915Z,45.67
2023-03-29T06:36:28.317Z,45.84
2023-03-29T06:39:00.047Z,45.96
2023-03-29T06:42:12.949Z,46.02
2023-03-29T06:45:09.758Z,46.08
2023-03-29T06:47:42.183Z,46.19
2023-03-29T06:50:14.808Z,46.28
2023-03-29T06:53:01.744Z,46.43
2023-03-29T06:55:34.668Z,46.45
2023-03-29T06:58:15.781Z,46.77
2023-03-29T07:00:48.232Z,46.70
2023-03-29T07:03:26.036Z,46.63
2023-03-29T07:06:04.644Z,46.69
2023-03-29T07:08:40.754Z,46.89
2023-03-29T07:11:19.130Z,46.94
2023-03-29T07:13:58.072Z,46.93
2023-03-29T07:16:30.574Z,46.83
2023-03-29T07:19:12.824Z,46.83
2023-03-29T07:21:56.290Z,46.81
2023-03-29T07:24:36.097Z,46.88
2023-03-29T07:27:07.465Z,46.86
2023-03-29T07:29:39.549Z,46.88
2023-03-29T07:32:11.509Z,46.88
2023-03-29T07:34:42.946Z,46.80
2023-03-29T07:37:20.089Z,46.96
2023-03-29T07:39:52.120Z,46.89
2023-03-29T07:42:57.073Z,46.77
2023-03-29T07:45:29.831Z,46.81
2023-03-29T07:48:08.627Z,46.63
2023-03-29T07:51:02.857Z,46.60
2023-03-29T07:53:40.078Z,46.58
2023-03-29T07:56:17.695Z,46.58
2023-03-29T07:58:57.342Z,46.55
2023-03-29T08:01:28.759Z,46.60
2023-03-29T08:04:18.504Z,46.60
2023-03-29T08:07:09.245Z,46.68
2023-03-29T08:10:15.367Z,46.78
2023-03-29T08:13:13.505Z,47.18
2023-03-29T08:16:16.938Z,47.37
2023-03-29T08:18:54.364Z,47.47
2023-03-29T08:21:26.750Z,47.52
2023-03-29T08:23:58.054Z,47.49
2023-03-29T08:26:42.038Z,47.47
2023-03-29T08:29:13.904Z,47.44
2023-03-29T08:31:45.260Z,47.44
2023-03-29T08:34:17.424Z,47.59
2023-03-29T08:37:02.241Z,47.68
2023-03-29T08:39:41.907Z,47.75
2023-03-29T08:42:56.900Z,47.92
2023-03-29T08:45:39.182Z,47.94
2023-03-29T08:48:22.399Z,47.94
2023-03-29T08:50:59.285Z,48.10
2023-03-29T08:53:36.616Z,48.07
2023-03-29T08:56:35.950Z,48.18
2023-03-29T08:59:30.996Z,48.14
2023-03-29T09:02:11.475Z,48.26
2023-03-29T09:04:44.577Z,48.39
2023-03-29T09:07:34.712Z,48.56
2023-03-29T09:10:06.755Z,48.74
2023-03-29T09:12:54.891Z,48.63
2023-03-29T09:15:29.949Z,48.69
2023-03-29T09:18:26.407Z,48.62
2023-03-29T09:21:02.144Z,48.72
2023-03-29T09:23:57.059Z,48.68
2023-03-29T09:26:49.019Z,48.81
2023-03-29T09:29:48.962Z,48.85
2023-03-29T09:32:24.333Z,48.90
2023-03-29T09:35:14.455Z,48.93
2023-03-29T09:37:46.818Z,48.94
2023-03-29T09:40:23.111Z,48.94
2023-03-29T09:43:09.429Z,49.11
2023-03-29T09:45:42.281Z,49.08
2023-03-29T09:48:18.385Z,49.14
2023-03-29T09:50:57.363Z,49.06
2023-03-29T09:53:28.520Z,48.94
2023-03-29T09:56:12.075Z,49.06
2023-03-29T09:58:55.766Z,49.01
2023-03-29T10:01:37.306Z,48.89
2023-03-29T10:04:11.511Z,48.98
2023-03-29T10:06:49.292Z,48.76
2023-03-29T10:09:24.362Z,48.89
2023-03-29T10:12:03.344Z,48.60
2023-03-29T10:14:38.197Z,48.62
2023-03-29T10:17:18.104Z,48.49
2023-03-29T10:19:54.320Z,48.51
2023-03-29T10:22:28.633Z,48.49
2023-03-29T10:25:00.003Z,48.52
2023-03-29T10:27:34.866Z,48.38
2023-03-29T10:30:20.520Z,48.44
2023-03-29T10:32:56.858Z,48.24
2023-03-29T10:35:34.219Z,48.16
2023-03-29T10:38:12.182Z,48.27
2023-03-29T10:40:47.506Z,48.07
2023-03-29T10:43:25.748Z,48.10
2023-03-29T10:46:06.942Z,47.91
2023-03-29T10:48:38.496Z,47.95
2023-03-29T10:51:09.766Z,47.70
2023-03-29T10:53:41.289Z,47.43
2023-03-29T10:56:41.466Z,46.91
2023-03-29T10:59:23.244Z,46.38
2023-03-29T11:02:09.238Z,46.03
2023-03-29T11:04:47.657Z,45.48
2023-03-29T11:07:30.745Z,45.37
2023-03-29T11:10:15.983Z,45.09
2023-03-29T11:12:55.380Z,44.79
2023-03-29T11:15:39.907Z,44.69
2023-03-29T11:18:35.482Z,44.68
2023-03-29T11:21:15.013Z,44.59
2023-03-29T11:23:58.108Z,44.67
2023-03-29T11:26:38.013Z,44.50
2023-03-29T11:29:16.338Z,44.35
2023-03-29T11:32:00.295Z,44.35
2023-03-29T11:34:37.979Z,44.18
2023-03-29T11:37:19.944Z,44.27
2023-03-29T11:40:00.939Z,44.13
2023-03-29T11:42:35.344Z,44.00
2023-03-29T11:45:12.581Z,44.14
2023-03-29T11:47:48.179Z,44.01
2023-03-29T11:50:23.255Z,44.14
2023-03-29T11:53:00.043Z,44.16
2023-03-29T11:55:34.714Z,44.23
2023-03-29T11:58:13.264Z,44.34
2023-03-29T12:00:49.987Z,44.34
2023-03-29T12:03:32.488Z,44.56
2023-03-29T12:06:09.313Z,44.23
2023-03-29T12:08:44.179Z,44.24
2023-03-29T12:11:25.628Z,44.36
2023-03-29T12:14:01.249Z,44.61
2023-03-29T12:16:37.218Z,44.95
2023-03-29T12:19:18.681Z,44.74
2023-03-29T12:21:50.881Z,44.86
2023-03-29T12:24:24.728Z,44.88
2023-03-29T12:27:16.599Z,44.99
2023-03-29T12:30:10.074Z,45.08
2023-03-29T12:32:58.548Z,45.30
2023-03-29T12:36:06.661Z,45.58
2023-03-29T12:39:12.683Z,45.36
2023-03-29T12:42:21.308Z,45.38
2023-03-29T12:45:35.215Z,45.31
2023-03-29T12:48:07.632Z,45.52
2023-03-29T12:50:46.212Z,45.39
2023-03-29T12:53:24.029Z,45.33
2023-03-29T12:56:08.933Z,45.34
2023-03-29T12:59:09.031Z,45.60
2023-03-29T13:01:42.194Z,45.64
2023-03-29T13:04:19.932Z,45.98
2023-03-29T13:07:06.069Z,46.17
2023-03-29T13:09:49.016Z,46.24
2023-03-29T13:12:27.631Z,46.27
2023-03-29T13:15:01.863Z,46.27
2023-03-29T13:17:45.332Z,46.12
2023-03-29T13:20:43.486Z,46.23
2023-03-29T13:23:28.031Z,46.32
2023-03-29T13:26:17.943Z,46.56
2023-03-29T13:29:06.465Z,46.63
2023-03-29T13:31:44.317Z,46.54
2023-03-29T13:34:32.251Z,46.70
2023-03-29T13:37:17.949Z,46.62
2023-03-29T13:39:53.642Z,46.72
2023-03-29T13:42:38.780Z,46.54
2023-03-29T13:45:17.351Z,46.57
2023-03-29T13:48:02.649Z,46.58
2023-03-29T13:50:41.763Z,46.60
2023-03-29T13:53:24.036Z,46.67
2023-03-29T13:55:56.232Z,46.56
2023-03-29T13:58:39.353Z,46.70
2023-03-29T14:01:16.589Z,46.68
2023-03-29T14:03:51.736Z,46.66
2023-03-29T14:06:28.014Z,46.58
2023-03-29T14:09:00.881Z,46.79
2023-03-29T14:11:33.073Z,46.77
2023-03-29T14:14:06.491Z,46.83
2023-03-29T14:19:34.041Z,47.00
2023-03-29T14:22:09.323Z,47.16
2023-03-29T14:24:48.241Z,47.13
2023-03-29T14:27:19.892Z,47.06
2023-03-29T14:29:53.850Z,47.00
2023-03-29T14:32:32.557Z,47.02
2023-03-29T14:35:03.637Z,47.04
2023-03-29T14:37:34.810Z,47.04
2023-03-29T14:40:12.128Z,47.24
2023-03-29T14:42:43.726Z,47.29
2023-03-29T14:45:18.126Z,47.25
2023-03-29T14:47:50.023Z,47.27
2023-03-29T14:50:25.448Z,47.21
2023-03-29T14:52:58.032Z,47.19
2023-03-29T14:55:31.098Z,47.43
2023-03-29T14:58:02.861Z,47.57
2023-03-29T15:00:43.606Z,47.79
2023-03-29T15:03:18.091Z,47.82
2023-03-29T15:05:55.652Z,47.77
2023-03-29T15:08:34.125Z,47.94
2023-03-29T15:11:13.054Z,47.79
2023-03-29T15:13:45.459Z,47.65
2023-03-29T15:16:20.274Z,47.67
2023-03-29T15:18:53.792Z,47.50
2023-03-29T15:21:30.354Z,47.22
2023-03-29T15:24:03.420Z,47.25
2023-03-29T15:26:36.956Z,47.28
2023-03-29T15:29:13.727Z,47.25
2023-03-29T15:31:55.296Z,47.24
2023-03-29T15:34:30.063Z,47.21
2023-03-29T15:37:02.472Z,47.09
2023-03-29T15:39:35.248Z,46.95
2023-03-29T15:42:07.383Z,46.65
2023-03-29T15:44:41.493Z,46.93
2023-03-29T15:47:14.477Z,46.72
2023-03-29T15:49:47.643Z,46.11
2023-03-29T15:52:18.823Z,46.30
2023-03-29T15:54:49.754Z,46.28
2023-03-29T15:57:21.921Z,46.41
2023-03-29T15:59:53.434Z,46.23
2023-03-29T16:02:26.144Z,46.44
2023-03-29T16:04:57.119Z,46.20
2023-03-29T16:07:28.248Z,45.98
2023-03-29T16:10:00.089Z,46.00
2023-03-29T16:12:31.609Z,46.01
2023-03-29T16:15:02.665Z,46.23
2023-03-29T16:17:34.466Z,46.15
2023-03-29T16:20:07.313Z,46.05
2023-03-29T16:22:38.329Z,46.08
2023-03-29T16:25:15.890Z,45.99
2023-03-29T16:27:47.092Z,45.95
2023-03-29T16:30:18.853Z,46.04
2023-03-29T16:32:49.925Z,46.04
2023-03-29T16:35:26.647Z,46.00
2023-03-29T16:37:58.335Z,45.79
2023-03-29T16:40:29.282Z,45.69
2023-03-29T16:43:00.496Z,45.58
2023-03-29T16:45:31.855Z,45.55
2023-03-29T16:48:05.470Z,45.73
2023-03-29T16:50:36.806Z,45.69
2023-03-29T16:53:07.973Z,45.56
2023-03-29T16:55:39.377Z,45.51
2023-03-29T16:58:10.421Z,45.60
2023-03-29T17:00:41.854Z,45.53
2023-03-29T17:03:13.267Z,45.63
2023-03-29T17:05:50.394Z,45.74
2023-03-29T17:08:22.606Z,45.72
2023-03-29T17:10:56.866Z,45.65
2023-03-29T17:13:28.520Z,45.59
2023-03-29T17:16:00.260Z,45.52
2023-03-29T17:18:31.392Z,45.64
2023-03-29T17:21:03.409Z,45.66
2023-03-29T17:23:34.488Z,45.68
2023-03-29T17:26:06.586Z,45.78
2023-03-29T17:28:38.746Z,45.73
2023-03-29T17:31:10.419Z,45.84
2023-03-29T17:33:41.697Z,45.64
2023-03-29T17:36:14.117Z,45.75
2023-03-29T17:38:48.900Z,45.69
2023-03-29T17:41:21.471Z,45.76
2023-03-29T17:43:52.492Z,45.77
2023-03-29T17:46:23.864Z,45.67
2023-03-29T17:48:56.058Z,45.88
2023-03-29T17:51:27.881Z,46.02
2023-03-29T17:53:58.608Z,46.06
2023-03-29T17:56:29.891Z,46.20
2023-03-29T17:59:01.516Z,46.23
2023-03-29T18:01:32.989Z,46.28
2023-03-29T18:04:04.798Z,46.24
2023-03-29T18:06:36.470Z,46.37
2023-03-29T18:09:07.865Z,46.21
2023-03-29T18:11:39.590Z,46.39
2023-03-29T18:14:10.654Z,46.27
2023-03-29T18:16:42.827Z,46.29
2023-03-29T18:19:13.919Z,46.40
2023-03-29T18:21:44.869Z,46.32
2023-03-29T18:24:16.316Z,46.44
2023-03-29T18:26:47.150Z,46.27
2023-03-29T18:29:18.309Z,46.47
2023-03-29T18:31:49.591Z,46.36
2023-03-29T18:34:20.851Z,46.38
2023-03-29T18:36:53.746Z,46.45
2023-03-29T18:39:32.156Z,46.41
2023-03-29T18:42:03.739Z,46.44
2023-03-29T18:44:35.095Z,46.48
2023-03-29T18:47:06.239Z,46.36
2023-03-29T18:49:37.871Z,46.54
2023-03-29T18:52:12.005Z,46.47
2023-03-29T18:54:43.156Z,46.55
2023-03-29T18:57:14.896Z,46.56
2023-03-29T18:59:46.046Z,46.56
2023-03-29T19:02:17.245Z,46.56
2023-03-29T19:04:48.526Z,46.55
2023-03-29T19:07:20.816Z,46.59
2023-03-29T19:09:52.255Z,46.54
2023-03-29T19:12:23.632Z,46.57
2023-03-29T19:14:54.959Z,46.58
2023-03-29T19:17:25.928Z,46.74
2023-03-29T19:19:57.593Z,46.75
2023-03-29T19:22:28.476Z,46.71
2023-03-29T19:24:59.612Z,46.77
2023-03-29T19:27:30.738Z,46.80
2023-03-29T19:30:02.464Z,46.81
2023-03-29T19:32:33.854Z,46.75
2023-03-29T19:35:05.654Z,46.80
2023-03-29T19:37:36.774Z,46.79
2023-03-29T19:40:11.200Z,46.78
2023-03-29T19:42:42.463Z,46.85
2023-03-29T19:45:14.958Z,46.79
2023-03-29T19:47:47.762Z,46.78
2023-03-29T19:50:20.131Z,46.99
2023-03-29T19:52:51.754Z,47.03
2023-03-29T19:55:22.787Z,47.05
2023-03-29T19:57:53.777Z,46.93
2023-03-29T20:00:25.507Z,46.76
2023-03-29T20:02:57.010Z,46.86
2023-03-29T20:05:28.654Z,46.94
2023-03-29T20:07:59.465Z,46.95
2023-03-29T20:10:30.666Z,46.88
2023-03-29T20:13:01.758Z,46.97
2023-03-29T20:15:32.660Z,46.99
2023-03-29T20:18:03.588Z,46.93
2023-03-29T20:20:35.865Z,46.97
2023-03-29T20:23:07.233Z,46.94
2023-03-29T20:25:38.713Z,46.86
2023-03-29T20:28:09.966Z,46.93
2023-03-29T20:30:42.234Z,46.88
2023-03-29T20:33:13.880Z,46.82
2023-03-29T20:35:47.231Z,46.86
2023-03-29T20:38:18.327Z,46.86
2023-03-29T20:40:50.294Z,46.88
2023-03-29T20:43:21.745Z,46.91
2023-03-29T20:45:54.350Z,46.91
2023-03-29T20:48:31.467Z,47.00
2023-03-29T20:51:10.563Z,46.94
2023-03-29T20:53:44.619Z,46.93
2023-03-29T20:56:16.071Z,47.05
2023-03-29T20:58:47.897Z,46.98
2023-03-29T21:01:22.039Z,47.03
2023-03-29T21:03:53.455Z,46.99
2023-03-29T21:06:25.614Z,47.07
2023-03-29T21:08:57.508Z,47.75
2023-03-29T21:11:29.184Z,48.03
2023-03-29T21:14:00.348Z,48.03
2023-03-29T21:16:31.744Z,48.13
2023-03-29T21:19:03.055Z,48.24
2023-03-29T21:21:35.091Z,48.24
2023-03-29T21:24:07.231Z,48.23
2023-03-29T21:26:38.320Z,48.27
2023-03-29T21:29:09.647Z,48.19
2023-03-29T21:31:40.971Z,48.32
2023-03-29T21:34:12.595Z,48.63
2023-03-29T21:36:43.865Z,49.39
2023-03-29T21:39:15.578Z,49.75
2023-03-29T21:41:46.515Z,49.85
2023-03-29T21:44:17.946Z,49.79
2023-03-29T21:46:49.485Z,49.40
2023-03-29T21:49:21.121Z,49.20
2023-03-29T21:51:52.716Z,49.62
2023-03-29T21:54:24.460Z,49.95
2023-03-29T21:56:55.728Z,50.25
2023-03-29T21:59:27.969Z,50.60
2023-03-29T22:01:59.605Z,50.52
2023-03-29T22:04:37.092Z,50.26
2023-03-29T22:07:10.845Z,49.87
2023-03-29T22:09:42.518Z,49.83
2023-03-29T22:12:15.796Z,49.77
2023-03-29T22:14:47.190Z,49.76
2023-03-29T22:17:19.535Z,49.92
2023-03-29T22:19:50.764Z,49.99
2023-03-29T22:22:22.113Z,50.08
2023-03-29T22:24:54.721Z,50.02
2023-03-29T22:27:26.024Z,50.11
2023-03-29T22:29:58.744Z,50.08
2023-03-29T22:32:31.690Z,50.03
2023-03-29T22:35:03.101Z,50.05
2023-03-29T22:37:34.667Z,50.10
2023-03-29T22:40:06.501Z,50.06
2023-03-29T22:42:37.897Z,50.22
2023-03-29T22:45:11.706Z,50.20
2023-03-29T22:47:43.391Z,50.32
2023-03-29T22:50:15.158Z,50.34
2023-03-29T22:52:46.742Z,50.57
2023-03-29T22:55:18.577Z,50.55
2023-03-29T22:57:49.630Z,50.60
2023-03-29T23:00:22.897Z,50.66
2023-03-29T23:02:54.152Z,50.77
2023-03-29T23:05:26.003Z,51.03
2023-03-29T23:07:57.403Z,51.21
2023-03-29T23:10:30.625Z,51.48
2023-03-29T23:13:08.987Z,51.56
2023-03-29T23:15:45.337Z,51.70
2023-03-29T23:18:21.174Z,52.13
2023-03-29T23:20:54.605Z,52.26
2023-03-29T23:23:27.366Z,52.50
2023-03-29T23:25:58.456Z,52.91
2023-03-29T23:28:31.568Z,53.06
2023-03-29T23:31:04.785Z,53.31
2023-03-29T23:33:38.701Z,53.59
2023-03-29T23:36:12.367Z,53.79
2023-03-29T23:38:45.589Z,53.90
2023-03-29T23:41:17.748Z,54.14
2023-03-29T23:43:50.620Z,54.22
2023-03-29T23:46:22.121Z,54.43
2023-03-29T23:48:53.591Z,54.51
2023-03-29T23:51:29.029Z,54.55
2023-03-29T23:54:00.187Z,54.87
2023-03-29T23:56:31.179Z,55.13
2023-03-29T23:59:03.304Z,55.26
